Metar Aviation Weather Data LTBA Atatürk International

20°C Temp
16°C Dewpoint
78% Humidity
Temperature
26 KM/H
16 MPH
14 KTS
20°
North North
East

Wind Speed
Mostly Scattered
Clouds
Pressure 1020 (hPa) - 30.12 (in)
Visibility 6.2 (mi) - 10.0 (km)

Current Conditions
LTBA
Atatürk International 6 km (3.2 mi)
Metar :LTBA 151450Z 02014KT 9999 SCT035 BKN090 20/16 Q1020 NOSIG RMK RWY17L 03015KT RWY05 01013KT RWY23 03014KT
Mon 15th October 17:50 pm

Airport
  Metar Aviation API Data Provided by https://www.checkwx.com/ PHP scripts by weather34.com ©2018